createdAt,value
2019-05-03T00:02:43.429Z,6.53
2019-05-03T00:05:22.736Z,7.27
2019-05-03T00:07:54.720Z,6.50
2019-05-03T00:10:24.559Z,6.67
2019-05-03T00:12:54.189Z,6.97
2019-05-03T00:15:58.195Z,7.07
2019-05-03T00:18:28.053Z,6.83
2019-05-03T00:20:57.576Z,7.07
2019-05-03T00:23:27.392Z,6.97
2019-05-03T00:25:57.137Z,6.87
2019-05-03T00:28:26.842Z,6.70
2019-05-03T00:30:56.326Z,6.30
2019-05-03T00:33:26.322Z,5.57
2019-05-03T00:36:22.429Z,5.77
2019-05-03T00:38:54.093Z,5.73
2019-05-03T00:41:23.763Z,6.37
2019-05-03T00:43:53.606Z,5.63
2019-05-03T00:46:23.429Z,5.93
2019-05-03T00:48:53.260Z,6.23
2019-05-03T00:51:22.849Z,5.60
2019-05-03T00:53:53.039Z,6.07
2019-05-03T00:56:23.074Z,6.73
2019-05-03T00:58:58.659Z,6.20
2019-05-03T01:01:28.279Z,9.23
2019-05-03T01:03:58.043Z,6.47
2019-05-03T01:06:27.952Z,7.50
2019-05-03T01:08:57.832Z,5.80
2019-05-03T01:11:27.490Z,6.63
2019-05-03T01:13:57.146Z,7.40
2019-05-03T01:16:26.927Z,5.70
2019-05-03T01:18:56.800Z,6.23
2019-05-03T01:21:26.514Z,5.83
2019-05-03T01:23:56.092Z,7.00
2019-05-03T01:26:25.786Z,6.27
2019-05-03T01:28:55.550Z,5.97
2019-05-03T01:31:25.346Z,6.23
2019-05-03T01:33:54.914Z,6.50
2019-05-03T01:36:24.544Z,6.23
2019-05-03T01:38:54.369Z,7.37
2019-05-03T01:41:24.327Z,6.10
2019-05-03T01:43:54.054Z,6.27
2019-05-03T01:46:24.048Z,6.13
2019-05-03T01:49:15.249Z,6.37
2019-05-03T01:52:02.262Z,7.73
2019-05-03T01:54:32.263Z,6.60
2019-05-03T01:57:02.518Z,6.17
2019-05-03T01:59:32.569Z,5.87
2019-05-03T02:02:23.076Z,6.50
2019-05-03T02:05:23.845Z,6.50
2019-05-03T02:07:53.632Z,6.17
2019-05-03T02:10:23.417Z,8.83
2019-05-03T02:12:53.228Z,6.37
2019-05-03T02:15:22.975Z,6.10
2019-05-03T02:17:52.391Z,6.30
2019-05-03T02:20:22.008Z,6.27
2019-05-03T02:22:52.282Z,6.77
2019-05-03T02:25:21.896Z,6.83
2019-05-03T02:27:52.716Z,7.77
2019-05-03T02:30:24.974Z,6.00
2019-05-03T02:32:53.907Z,5.70
2019-05-03T02:35:23.378Z,5.97
2019-05-03T02:37:54.500Z,5.43
2019-05-03T02:40:24.906Z,6.00
2019-05-03T02:43:10.562Z,7.23
2019-05-03T02:45:49.863Z,6.53
2019-05-03T02:48:29.761Z,7.23
2019-05-03T02:50:59.452Z,6.17
2019-05-03T02:53:28.870Z,7.37
2019-05-03T02:56:13.978Z,5.63
2019-05-03T02:58:29.584Z,7.33
2019-05-03T03:01:01.208Z,7.90
2019-05-03T03:03:30.944Z,6.37
2019-05-03T03:06:01.994Z,7.77
2019-05-03T03:08:33.632Z,6.70
2019-05-03T03:11:06.244Z,6.50
2019-05-03T03:13:37.989Z,6.23
2019-05-03T03:16:08.941Z,9.23
2019-05-03T03:18:40.628Z,12.23
2019-05-03T03:21:16.240Z,10.47
2019-05-03T03:24:09.705Z,7.07
2019-05-03T03:26:43.103Z,5.70
2019-05-03T03:29:16.059Z,5.93
2019-05-03T03:32:29.090Z,5.33
2019-05-03T03:35:22.627Z,5.47
2019-05-03T03:37:55.751Z,5.20
2019-05-03T03:40:25.647Z,5.30
2019-05-03T03:42:57.110Z,7.47
2019-05-03T03:45:27.132Z,5.40
2019-05-03T03:47:57.441Z,7.13
2019-05-03T03:50:27.675Z,5.23
2019-05-03T03:52:59.319Z,5.50
2019-05-03T03:55:32.094Z,5.50
2019-05-03T03:58:02.323Z,6.20
2019-05-03T04:00:32.643Z,7.87
2019-05-03T04:03:02.544Z,8.00
2019-05-03T04:05:35.579Z,6.93
2019-05-03T04:08:05.717Z,6.77
2019-05-03T04:10:35.928Z,6.07
2019-05-03T04:13:07.846Z,5.73
2019-05-03T04:15:56.168Z,5.60
2019-05-03T04:18:45.670Z,5.70
2019-05-03T04:21:16.187Z,6.07
2019-05-03T04:23:46.562Z,8.33
2019-05-03T04:26:16.720Z,8.23
2019-05-03T04:28:47.475Z,9.50
2019-05-03T04:31:17.104Z,5.77
2019-05-03T04:33:46.624Z,7.63
2019-05-03T04:36:16.404Z,6.30
2019-05-03T04:38:46.260Z,7.33
2019-05-03T04:41:16.117Z,6.43
2019-05-03T04:43:46.062Z,8.30
2019-05-03T04:46:25.887Z,8.00
2019-05-03T04:48:56.181Z,8.50
2019-05-03T04:51:26.309Z,10.73
2019-05-03T04:54:16.410Z,11.47
2019-05-03T04:56:46.523Z,8.67
2019-05-03T04:59:16.729Z,7.60
2019-05-03T05:01:46.510Z,7.07
2019-05-03T05:04:16.334Z,5.30
2019-05-03T05:06:46.109Z,5.53
2019-05-03T05:09:15.939Z,6.47
2019-05-03T05:11:46.123Z,6.00
2019-05-03T05:14:15.866Z,5.37
2019-05-03T05:16:46.651Z,5.17
2019-05-03T05:19:20.158Z,5.63
2019-05-03T05:21:54.930Z,5.93
2019-05-03T05:24:25.588Z,8.63
2019-05-03T05:27:14.701Z,7.47
2019-05-03T05:29:45.055Z,8.00
2019-05-03T05:32:14.570Z,6.80
2019-05-03T05:34:46.051Z,6.67
2019-05-03T05:37:15.804Z,7.17
2019-05-03T05:39:45.494Z,7.37
2019-05-03T05:42:15.018Z,6.87
2019-05-03T05:44:45.498Z,5.40
2019-05-03T05:47:37.167Z,8.57
2019-05-03T05:50:10.475Z,6.00
2019-05-03T05:52:40.250Z,5.53
2019-05-03T05:55:20.430Z,5.67
2019-05-03T05:58:05.244Z,5.50
2019-05-03T06:00:48.770Z,7.93
2019-05-03T06:03:18.583Z,5.77
2019-05-03T06:05:48.164Z,5.00
2019-05-03T06:08:31.502Z,4.73
2019-05-03T06:11:25.918Z,5.00
2019-05-03T06:14:02.579Z,5.57
2019-05-03T06:16:47.542Z,5.13
2019-05-03T06:19:25.251Z,4.70
2019-05-03T06:22:19.978Z,5.57
2019-05-03T06:24:55.308Z,7.47
2019-05-03T06:27:32.083Z,5.30
2019-05-03T06:30:09.026Z,8.57
2019-05-03T06:32:40.373Z,4.07
2019-05-03T06:35:10.538Z,6.37
2019-05-03T06:37:45.687Z,4.70
2019-05-03T06:40:15.429Z,5.00
2019-05-03T06:42:52.344Z,4.60
2019-05-03T06:45:16.882Z,4.77
2019-05-03T06:47:49.942Z,5.10
2019-05-03T06:50:19.449Z,5.53
2019-05-03T06:52:49.848Z,4.30
2019-05-03T06:55:19.564Z,4.97
2019-05-03T06:57:49.896Z,5.67
2019-05-03T07:00:37.683Z,4.83
2019-05-03T07:03:17.217Z,4.43
2019-05-03T07:06:04.717Z,5.07
2019-05-03T07:08:56.458Z,4.57
2019-05-03T07:11:26.259Z,10.50
2019-05-03T07:13:55.926Z,5.53
2019-05-03T07:16:25.551Z,3.93
2019-05-03T07:18:58.382Z,5.00
2019-05-03T07:21:26.320Z,4.50
2019-05-03T07:23:56.158Z,4.00
2019-05-03T07:26:26.033Z,5.80
2019-05-03T07:28:55.823Z,5.77
2019-05-03T07:31:25.698Z,4.37
2019-05-03T07:33:55.288Z,5.93
2019-05-03T07:36:28.184Z,4.77
2019-05-03T07:38:56.240Z,3.67
2019-05-03T07:41:27.263Z,4.67
2019-05-03T07:43:57.119Z,5.27
2019-05-03T07:46:26.928Z,4.53
2019-05-03T07:48:56.768Z,5.03
2019-05-03T07:51:26.170Z,6.50
2019-05-03T07:53:55.797Z,4.37
2019-05-03T07:56:30.282Z,4.17
2019-05-03T07:59:04.156Z,5.70
2019-05-03T08:01:40.215Z,6.73
2019-05-03T08:04:09.973Z,4.53
2019-05-03T08:06:39.689Z,3.63
2019-05-03T08:09:09.982Z,4.50
2019-05-03T08:11:39.585Z,5.53
2019-05-03T08:14:09.450Z,3.80
2019-05-03T08:16:39.019Z,4.30
2019-05-03T08:19:08.526Z,4.50
2019-05-03T08:21:38.997Z,6.53
2019-05-03T08:24:09.077Z,4.20
2019-05-03T08:26:38.894Z,3.97
2019-05-03T08:29:16.303Z,3.53
2019-05-03T08:32:05.100Z,4.07
2019-05-03T08:34:39.767Z,4.10
2019-05-03T08:37:31.627Z,6.93
2019-05-03T08:40:01.422Z,5.07
2019-05-03T08:42:30.939Z,4.40
2019-05-03T08:45:00.354Z,3.50
2019-05-03T08:47:30.009Z,4.47
2019-05-03T08:49:59.693Z,3.53
2019-05-03T08:52:29.202Z,3.93
2019-05-03T08:54:58.833Z,4.40
2019-05-03T08:57:28.438Z,2.97
2019-05-03T08:59:57.984Z,3.30
2019-05-03T09:02:27.787Z,2.97
2019-05-03T09:04:57.192Z,4.10
2019-05-03T09:07:26.861Z,2.73
2019-05-03T09:10:05.520Z,2.87
2019-05-03T09:12:52.984Z,3.77
2019-05-03T09:15:24.539Z,4.85
2019-05-03T09:17:55.272Z,3.65
2019-05-03T09:20:25.236Z,3.45
2019-05-03T09:22:55.078Z,2.98
2019-05-03T09:25:24.899Z,2.98
2019-05-03T09:27:55.243Z,3.20
2019-05-03T09:30:25.222Z,3.37
2019-05-03T09:32:55.715Z,3.02
2019-05-03T09:35:32.144Z,3.22
2019-05-03T09:37:56.707Z,3.10
2019-05-03T09:40:26.502Z,2.55
2019-05-03T09:42:56.274Z,2.70
2019-05-03T09:45:25.886Z,2.60
2019-05-03T09:47:55.769Z,2.65
2019-05-03T09:50:25.168Z,2.98
2019-05-03T09:52:55.530Z,2.80
2019-05-03T09:55:35.352Z,2.92
2019-05-03T09:58:05.504Z,3.10
2019-05-03T10:00:35.173Z,4.00
2019-05-03T10:03:05.697Z,2.50
2019-05-03T10:05:35.447Z,2.77
2019-05-03T10:08:05.454Z,2.60
2019-05-03T10:10:53.294Z,3.08
2019-05-03T10:13:23.840Z,3.22
2019-05-03T10:15:54.944Z,3.55
2019-05-03T10:18:25.442Z,3.65
2019-05-03T10:20:56.228Z,2.90
2019-05-03T10:23:39.411Z,3.45
2019-05-03T10:26:09.300Z,3.10
2019-05-03T10:28:39.159Z,4.92
2019-05-03T10:31:08.840Z,2.90
2019-05-03T10:33:45.830Z,3.72
2019-05-03T10:36:15.662Z,3.77
2019-05-03T10:38:45.914Z,3.20
2019-05-03T10:41:16.068Z,5.40
2019-05-03T10:43:45.730Z,2.85
2019-05-03T10:46:15.953Z,2.80
2019-05-03T10:48:45.771Z,4.45
2019-05-03T10:51:15.972Z,3.33
2019-05-03T10:53:48.463Z,3.05
2019-05-03T10:56:23.145Z,3.45
2019-05-03T10:59:06.158Z,3.30
2019-05-03T11:02:07.103Z,3.00
2019-05-03T11:04:36.963Z,3.02
2019-05-03T11:07:06.605Z,3.10
2019-05-03T11:09:48.526Z,2.92
2019-05-03T11:12:07.880Z,2.90
2019-05-03T11:14:37.617Z,3.10
2019-05-03T11:17:07.457Z,3.37
2019-05-03T11:19:37.195Z,3.20
2019-05-03T11:22:06.950Z,2.67
2019-05-03T11:24:36.654Z,3.65
2019-05-03T11:27:11.195Z,3.12
2019-05-03T11:29:40.730Z,3.42
2019-05-03T11:32:16.554Z,3.12
2019-05-03T11:34:52.592Z,3.20
2019-05-03T11:37:45.349Z,2.72
2019-05-03T11:40:15.717Z,2.83
2019-05-03T11:42:45.570Z,4.90
2019-05-03T11:45:15.865Z,2.98
2019-05-03T11:47:45.907Z,3.17
2019-05-03T11:50:15.970Z,2.92
2019-05-03T11:52:47.120Z,3.10
2019-05-03T11:55:16.937Z,3.05
2019-05-03T11:57:46.660Z,5.30
2019-05-03T12:00:22.779Z,2.70
2019-05-03T12:03:02.163Z,3.00
2019-05-03T12:05:32.119Z,3.27
2019-05-03T12:08:01.805Z,2.85
2019-05-03T12:10:48.450Z,3.25
2019-05-03T12:13:15.915Z,2.47
2019-05-03T12:15:45.453Z,2.95
2019-05-03T12:18:16.665Z,5.28
2019-05-03T12:20:48.058Z,3.30
2019-05-03T12:23:18.876Z,3.10
2019-05-03T12:25:49.624Z,2.95
2019-05-03T12:28:19.971Z,3.30
2019-05-03T12:30:49.376Z,3.00
2019-05-03T12:33:18.938Z,3.12
2019-05-03T12:35:48.644Z,2.83
2019-05-03T12:38:18.286Z,3.42
2019-05-03T12:40:47.803Z,4.05
2019-05-03T12:43:17.680Z,2.70
2019-05-03T12:45:47.419Z,2.98
2019-05-03T12:48:17.297Z,3.60
2019-05-03T12:50:47.600Z,3.45
2019-05-03T12:53:17.678Z,2.90
2019-05-03T12:55:47.482Z,2.87
2019-05-03T12:58:17.319Z,2.83
2019-05-03T13:01:05.084Z,4.45
2019-05-03T13:03:38.170Z,2.90
2019-05-03T13:06:07.840Z,3.15
2019-05-03T13:08:42.001Z,3.05
2019-05-03T13:11:11.972Z,3.00
2019-05-03T13:13:41.381Z,2.58
2019-05-03T13:16:15.266Z,3.45
2019-05-03T13:18:45.844Z,3.60
2019-05-03T13:21:15.637Z,3.30
2019-05-03T13:23:45.435Z,3.10
2019-05-03T13:26:15.158Z,2.70
2019-05-03T13:28:45.689Z,4.78
2019-05-03T13:31:16.225Z,2.55
2019-05-03T13:33:45.773Z,3.55
2019-05-03T13:36:15.633Z,2.90
2019-05-03T13:38:45.346Z,2.90
2019-05-03T13:41:14.964Z,2.77
2019-05-03T13:43:45.438Z,3.40
2019-05-03T13:46:15.726Z,2.85
2019-05-03T13:48:48.836Z,2.85
2019-05-03T13:51:16.541Z,3.77
2019-05-03T13:53:46.265Z,2.90
2019-05-03T13:56:16.114Z,2.85
2019-05-03T13:58:45.739Z,4.10
2019-05-03T14:01:15.163Z,2.80
2019-05-03T14:03:45.257Z,3.63
2019-05-03T14:06:15.196Z,2.93
2019-05-03T14:08:45.574Z,2.70
2019-05-03T14:11:15.589Z,3.23
2019-05-03T14:13:45.668Z,2.80
2019-05-03T14:16:15.417Z,5.17
2019-05-03T14:18:47.168Z,3.10
2019-05-03T14:21:21.821Z,3.60
2019-05-03T14:24:09.979Z,3.03
2019-05-03T14:26:40.394Z,4.63
2019-05-03T14:29:09.817Z,4.50
2019-05-03T14:31:39.713Z,3.47
2019-05-03T14:34:09.559Z,4.07
2019-05-03T14:36:39.098Z,5.07
2019-05-03T14:39:10.420Z,3.93
2019-05-03T14:41:39.970Z,5.00
2019-05-03T14:44:09.493Z,3.00
2019-05-03T14:46:39.302Z,3.20
2019-05-03T14:49:09.173Z,3.43
2019-05-03T14:51:38.739Z,4.07
2019-05-03T14:54:09.300Z,7.30
2019-05-03T14:56:47.753Z,3.33
2019-05-03T14:59:48.667Z,3.03
2019-05-03T15:02:24.606Z,3.40
2019-05-03T15:04:54.800Z,3.47
2019-05-03T15:07:25.530Z,4.27
2019-05-03T15:09:55.480Z,4.37
2019-05-03T15:12:25.284Z,3.37
2019-05-03T15:14:55.058Z,5.33
2019-05-03T15:17:24.813Z,4.43
2019-05-03T15:19:54.833Z,3.77
2019-05-03T15:22:25.329Z,4.03
2019-05-03T15:24:55.241Z,3.67
2019-05-03T15:27:25.042Z,3.47
2019-05-03T15:29:55.565Z,3.67
2019-05-03T15:32:25.271Z,3.37
2019-05-03T15:34:55.457Z,4.93
2019-05-03T15:37:25.566Z,4.20
2019-05-03T15:39:55.133Z,3.97
2019-05-03T15:42:25.785Z,3.47
2019-05-03T15:45:25.105Z,3.73
2019-05-03T15:48:28.762Z,3.80
2019-05-03T15:50:58.172Z,5.20
2019-05-03T15:53:27.855Z,3.83
2019-05-03T15:55:57.525Z,3.90
2019-05-03T15:58:27.334Z,4.70
2019-05-03T16:00:57.075Z,4.27
2019-05-03T16:03:26.682Z,4.60
2019-05-03T16:05:56.222Z,4.80
2019-05-03T16:08:25.755Z,4.33
2019-05-03T16:10:55.548Z,3.60
2019-05-03T16:13:25.427Z,4.00
2019-05-03T16:15:55.472Z,4.10
2019-05-03T16:18:24.870Z,5.60
2019-05-03T16:20:54.868Z,4.07
2019-05-03T16:23:25.133Z,5.57
2019-05-03T16:25:54.685Z,5.63
2019-05-03T16:28:34.410Z,5.17
2019-05-03T16:31:08.186Z,4.47
2019-05-03T16:33:38.010Z,6.57
2019-05-03T16:36:07.530Z,4.20
2019-05-03T16:38:37.393Z,4.20
2019-05-03T16:41:07.215Z,11.60
2019-05-03T16:43:37.145Z,18.20
2019-05-03T16:46:07.207Z,11.90
2019-05-03T16:48:36.718Z,13.37
2019-05-03T16:51:06.414Z,8.87
2019-05-03T16:53:35.928Z,14.17
2019-05-03T16:56:05.907Z,44.03
2019-05-03T16:58:35.687Z,28.97
2019-05-03T17:01:05.495Z,25.63
2019-05-03T17:03:42.798Z,12.57
2019-05-03T17:06:26.624Z,6.30
2019-05-03T17:09:14.553Z,10.30
2019-05-03T17:11:45.912Z,8.87
2019-05-03T17:14:15.539Z,6.70
2019-05-03T17:16:45.126Z,5.43
2019-05-03T17:19:17.138Z,3.70
2019-05-03T17:21:46.330Z,4.73
2019-05-03T17:24:16.486Z,3.70
2019-05-03T17:26:46.331Z,4.23
2019-05-03T17:29:16.124Z,4.80
2019-05-03T17:31:45.909Z,4.50
2019-05-03T17:34:15.670Z,5.27
2019-05-03T17:36:45.373Z,5.83
2019-05-03T17:39:17.225Z,3.70
2019-05-03T17:42:01.804Z,3.20
2019-05-03T17:44:37.543Z,5.33
2019-05-03T17:47:07.297Z,4.03
2019-05-03T17:49:37.473Z,4.53
2019-05-03T17:52:26.190Z,3.97
2019-05-03T17:55:21.424Z,3.13
2019-05-03T17:58:19.669Z,3.50
2019-05-03T18:01:23.974Z,3.67
2019-05-03T18:04:06.118Z,3.93
2019-05-03T18:06:31.343Z,3.23
2019-05-03T18:09:16.308Z,3.80
2019-05-03T18:11:48.440Z,5.33
2019-05-03T18:14:18.112Z,3.17
2019-05-03T18:16:47.524Z,6.37
2019-05-03T18:19:17.355Z,4.37
2019-05-03T18:21:47.149Z,4.57
2019-05-03T18:24:16.864Z,3.73
2019-05-03T18:26:46.711Z,4.93
2019-05-03T18:29:16.269Z,7.23
2019-05-03T18:31:46.005Z,4.87
2019-05-03T18:34:19.712Z,5.13
2019-05-03T18:36:47.246Z,7.83
2019-05-03T18:39:18.015Z,6.70
2019-05-03T18:41:47.916Z,4.80
2019-05-03T18:44:36.302Z,5.80
2019-05-03T18:47:08.830Z,3.63
2019-05-03T18:49:39.750Z,4.33
2019-05-03T18:52:09.707Z,8.33
2019-05-03T18:54:39.721Z,4.93
2019-05-03T18:57:09.289Z,4.73
2019-05-03T18:59:39.082Z,4.30
2019-05-03T19:02:10.485Z,4.13
2019-05-03T19:04:51.814Z,4.37
2019-05-03T19:07:39.383Z,3.47
2019-05-03T19:10:30.932Z,4.60
2019-05-03T19:13:14.833Z,3.50
2019-05-03T19:15:44.771Z,4.07
2019-05-03T19:18:27.368Z,4.83
2019-05-03T19:20:57.501Z,5.70
2019-05-03T19:23:27.366Z,4.50
2019-05-03T19:25:57.304Z,7.07
2019-05-03T19:28:27.247Z,4.07
2019-05-03T19:30:56.692Z,4.07
2019-05-03T19:33:26.155Z,6.20
2019-05-03T19:35:56.079Z,4.03
2019-05-03T19:38:25.638Z,5.23
2019-05-03T19:40:55.062Z,5.07
2019-05-03T19:43:27.033Z,3.50
2019-05-03T19:45:56.133Z,5.07
2019-05-03T19:48:25.915Z,5.00
2019-05-03T19:50:55.702Z,5.37
2019-05-03T19:53:47.416Z,8.07
2019-05-03T19:56:18.376Z,5.17
2019-05-03T19:58:55.251Z,4.90
2019-05-03T20:01:44.031Z,3.23
2019-05-03T20:04:41.829Z,5.83
2019-05-03T20:07:36.665Z,3.70
2019-05-03T20:10:06.893Z,6.40
2019-05-03T20:12:36.786Z,3.73
2019-05-03T20:15:06.945Z,3.80
2019-05-03T20:17:36.634Z,3.63
2019-05-03T20:20:06.523Z,7.00
2019-05-03T20:22:36.299Z,4.03
2019-05-03T20:25:06.212Z,4.67
2019-05-03T20:27:36.056Z,4.67
2019-05-03T20:30:06.947Z,6.17
2019-05-03T20:32:36.876Z,4.77
2019-05-03T20:35:14.879Z,4.13
2019-05-03T20:37:38.907Z,4.23
2019-05-03T20:40:08.826Z,4.80
2019-05-03T20:42:54.889Z,5.90
2019-05-03T20:45:30.138Z,4.47
2019-05-03T20:48:00.213Z,5.03
2019-05-03T20:50:29.865Z,4.00
2019-05-03T20:52:59.381Z,4.73
2019-05-03T20:55:29.077Z,4.23
2019-05-03T20:57:58.613Z,4.00
2019-05-03T21:00:28.412Z,7.40
2019-05-03T21:02:57.857Z,4.63
2019-05-03T21:05:31.244Z,5.73
2019-05-03T21:07:59.026Z,5.80
2019-05-03T21:10:28.816Z,4.13
2019-05-03T21:12:58.579Z,4.73
2019-05-03T21:15:49.932Z,5.47
2019-05-03T21:18:41.360Z,4.33
2019-05-03T21:21:24.741Z,4.30
2019-05-03T21:23:57.319Z,5.00
2019-05-03T21:26:27.037Z,4.23
2019-05-03T21:28:56.568Z,3.80
2019-05-03T21:31:26.092Z,6.33
2019-05-03T21:33:55.754Z,5.27
2019-05-03T21:36:25.623Z,5.67
2019-05-03T21:38:55.357Z,3.73
2019-05-03T21:41:25.110Z,4.07
2019-05-03T21:43:54.671Z,3.83
2019-05-03T21:46:37.304Z,6.13
2019-05-03T21:49:11.633Z,4.90
2019-05-03T21:51:41.043Z,4.17
2019-05-03T21:54:10.573Z,4.27
2019-05-03T21:56:40.080Z,5.30
2019-05-03T21:59:09.547Z,4.63
2019-05-03T22:01:42.746Z,6.47
2019-05-03T22:04:12.293Z,4.30
2019-05-03T22:06:41.814Z,7.20
2019-05-03T22:09:11.429Z,6.63
2019-05-03T22:11:41.166Z,5.57
2019-05-03T22:14:17.895Z,4.23
2019-05-03T22:17:06.544Z,4.90
2019-05-03T22:19:36.236Z,5.00
2019-05-03T22:22:25.419Z,5.33
2019-05-03T22:24:56.806Z,4.83
2019-05-03T22:27:31.472Z,5.70
2019-05-03T22:30:00.916Z,5.00
2019-05-03T22:32:30.658Z,4.03
2019-05-03T22:35:00.355Z,5.93
2019-05-03T22:37:30.166Z,3.83
2019-05-03T22:39:59.661Z,5.97
2019-05-03T22:42:29.092Z,4.67
2019-05-03T22:44:58.775Z,4.67
2019-05-03T22:47:28.477Z,4.10
2019-05-03T22:49:57.913Z,5.07
2019-05-03T22:52:27.371Z,4.07
2019-05-03T22:54:56.832Z,4.30
2019-05-03T22:57:26.269Z,4.63
2019-05-03T22:59:56.910Z,4.60
2019-05-03T23:02:26.622Z,5.07
2019-05-03T23:04:56.047Z,4.07
2019-05-03T23:07:25.492Z,4.63
2019-05-03T23:09:55.234Z,4.57
2019-05-03T23:12:25.050Z,3.97
2019-05-03T23:14:55.141Z,4.83
2019-05-03T23:17:25.362Z,4.30
2019-05-03T23:20:00.082Z,4.33
2019-05-03T23:22:31.532Z,6.53
2019-05-03T23:25:01.246Z,4.87
2019-05-03T23:27:31.020Z,3.77
2019-05-03T23:30:00.579Z,4.37
2019-05-03T23:32:30.196Z,4.77
2019-05-03T23:34:59.976Z,4.37
2019-05-03T23:37:29.708Z,4.73
2019-05-03T23:39:59.619Z,5.40
2019-05-03T23:42:29.380Z,4.13
2019-05-03T23:44:59.037Z,10.83
2019-05-03T23:47:41.882Z,8.53
2019-05-03T23:50:15.487Z,6.53
2019-05-03T23:52:45.290Z,4.20
2019-05-03T23:55:45.980Z,6.33
2019-05-03T23:58:15.711Z,6.57
